createdAt,value
2019-02-28T00:00:18.109Z,3.78
2019-02-28T00:02:48.539Z,3.74
2019-02-28T00:05:19.032Z,3.79
2019-02-28T00:07:49.853Z,3.77
2019-02-28T00:10:21.131Z,3.71
2019-02-28T00:12:51.667Z,3.73
2019-02-28T00:15:22.148Z,3.68
2019-02-28T00:17:52.616Z,3.68
2019-02-28T00:20:23.158Z,3.68
2019-02-28T00:22:53.603Z,3.68
2019-02-28T00:25:24.389Z,3.66
2019-02-28T00:27:54.905Z,3.65
2019-02-28T00:30:25.395Z,3.62
2019-02-28T00:32:56.308Z,3.62
2019-02-28T00:35:28.137Z,3.64
2019-02-28T00:37:58.709Z,3.67
2019-02-28T00:40:29.206Z,3.65
2019-02-28T00:42:59.820Z,3.66
2019-02-28T00:45:30.869Z,3.65
2019-02-28T00:48:01.431Z,3.61
2019-02-28T00:50:31.915Z,3.54
2019-02-28T00:53:02.446Z,3.49
2019-02-28T00:55:33.137Z,3.45
2019-02-28T00:58:03.767Z,3.43
2019-02-28T01:00:37.006Z,3.41
2019-02-28T01:03:06.651Z,3.43
2019-02-28T01:05:37.316Z,3.44
2019-02-28T01:08:07.946Z,3.42
2019-02-28T01:10:39.427Z,3.44
2019-02-28T01:13:10.583Z,3.34
2019-02-28T01:15:44.419Z,3.26
2019-02-28T01:18:13.397Z,3.18
2019-02-28T01:20:43.999Z,3.14
2019-02-28T01:23:14.619Z,2.99
2019-02-28T01:25:45.030Z,3.02
2019-02-28T01:28:15.508Z,3.00
2019-02-28T01:30:46.038Z,2.99
2019-02-28T01:33:17.227Z,2.98
2019-02-28T01:35:47.603Z,2.96
2019-02-28T01:38:18.076Z,3.05
2019-02-28T01:40:48.476Z,3.03
2019-02-28T01:43:18.999Z,3.19
2019-02-28T01:45:49.395Z,3.17
2019-02-28T01:48:22.622Z,3.16
2019-02-28T01:50:52.162Z,3.20
2019-02-28T01:53:22.696Z,3.19
2019-02-28T01:55:53.191Z,3.17
2019-02-28T01:58:23.665Z,3.13
2019-02-28T02:00:57.325Z,3.21
2019-02-28T02:03:26.421Z,3.20
2019-02-28T02:05:56.959Z,3.23
2019-02-28T02:08:27.298Z,3.20
2019-02-28T02:10:57.765Z,3.17
2019-02-28T02:13:28.130Z,3.06
2019-02-28T02:15:58.720Z,3.03
2019-02-28T02:18:29.195Z,2.98
2019-02-28T02:21:00.214Z,2.90
2019-02-28T02:23:31.441Z,2.88
2019-02-28T02:26:01.826Z,2.93
2019-02-28T02:28:32.210Z,2.91
2019-02-28T02:31:02.570Z,2.85
2019-02-28T02:33:33.157Z,2.87
2019-02-28T02:36:03.572Z,2.83
2019-02-28T02:38:39.783Z,2.82
2019-02-28T02:41:06.419Z,2.87
2019-02-28T02:43:36.829Z,2.92
2019-02-28T02:46:07.246Z,2.94
2019-02-28T02:48:38.608Z,2.87
2019-02-28T02:51:11.332Z,2.87
2019-02-28T02:53:43.412Z,2.84
2019-02-28T02:56:13.947Z,2.83
2019-02-28T02:58:44.383Z,2.79
2019-02-28T03:01:14.890Z,2.80
2019-02-28T03:03:45.477Z,2.81
2019-02-28T03:06:15.982Z,2.83
2019-02-28T03:08:46.537Z,2.87
2019-02-28T03:11:16.948Z,2.82
2019-02-28T03:13:47.383Z,2.80
2019-02-28T03:16:17.834Z,2.77
2019-02-28T03:18:48.312Z,2.77
2019-02-28T03:21:18.823Z,2.77
2019-02-28T03:23:49.200Z,2.73
2019-02-28T03:26:19.682Z,2.73
2019-02-28T03:28:50.175Z,2.72
2019-02-28T03:31:20.672Z,2.71
2019-02-28T03:33:51.068Z,2.67
2019-02-28T03:36:22.083Z,2.61
2019-02-28T03:38:52.588Z,2.55
2019-02-28T03:41:23.067Z,2.52
2019-02-28T03:43:53.536Z,2.54
2019-02-28T03:46:24.027Z,2.59
2019-02-28T03:48:54.415Z,2.57
2019-02-28T03:51:28.370Z,2.53
2019-02-28T03:53:57.026Z,2.62
2019-02-28T03:56:27.494Z,3.04
2019-02-28T03:58:58.041Z,3.17
2019-02-28T04:01:29.268Z,3.52
2019-02-28T04:03:59.730Z,3.66
2019-02-28T04:06:30.396Z,3.67
2019-02-28T04:09:07.242Z,3.71
2019-02-28T04:11:32.842Z,3.71
2019-02-28T04:14:03.249Z,3.73
2019-02-28T04:16:33.647Z,3.73
2019-02-28T04:19:03.961Z,3.69
2019-02-28T04:21:34.474Z,3.70
2019-02-28T04:24:12.638Z,3.62
2019-02-28T04:26:37.126Z,3.53
2019-02-28T04:29:07.724Z,3.47
2019-02-28T04:31:38.223Z,3.37
2019-02-28T04:34:13.132Z,3.24
2019-02-28T04:36:40.977Z,3.33
2019-02-28T04:39:11.373Z,3.31
2019-02-28T04:41:41.735Z,3.26
2019-02-28T04:44:12.296Z,3.19
2019-02-28T04:46:42.846Z,3.21
2019-02-28T04:49:13.315Z,3.26
2019-02-28T04:51:43.739Z,3.30
2019-02-28T04:54:14.076Z,3.24
2019-02-28T04:56:45.511Z,3.20
2019-02-28T04:59:16.765Z,3.16
2019-02-28T05:01:47.267Z,3.12
2019-02-28T05:04:17.756Z,3.06
2019-02-28T05:06:48.270Z,3.00
2019-02-28T05:09:18.670Z,2.99
2019-02-28T05:11:49.330Z,2.95
2019-02-28T05:14:23.495Z,2.97
2019-02-28T05:16:52.106Z,2.93
2019-02-28T05:19:22.546Z,2.91
2019-02-28T05:21:53.412Z,2.88
2019-02-28T05:24:24.747Z,2.86
2019-02-28T05:26:57.309Z,2.85
2019-02-28T05:29:27.310Z,2.94
2019-02-28T05:31:58.088Z,2.85
2019-02-28T05:34:30.217Z,2.77
2019-02-28T05:37:00.631Z,2.76
2019-02-28T05:39:31.709Z,2.73
2019-02-28T05:42:03.107Z,2.74
2019-02-28T05:44:33.600Z,2.78
2019-02-28T05:47:04.185Z,2.88
2019-02-28T05:49:34.585Z,3.01
2019-02-28T05:52:05.075Z,3.17
2019-02-28T05:54:35.997Z,3.37
2019-02-28T05:57:08.172Z,3.46
2019-02-28T05:59:38.751Z,3.56
2019-02-28T06:02:09.266Z,3.66
2019-02-28T06:04:39.994Z,3.90
2019-02-28T06:07:10.561Z,4.19
2019-02-28T06:09:41.438Z,4.59
2019-02-28T06:12:12.182Z,4.87
2019-02-28T06:14:43.045Z,5.22
2019-02-28T06:17:13.755Z,5.71
2019-02-28T06:19:45.005Z,6.27
2019-02-28T06:22:15.601Z,6.88
2019-02-28T06:24:46.142Z,7.36
2019-02-28T06:27:16.715Z,7.68
2019-02-28T06:29:47.312Z,8.37
2019-02-28T06:32:23.113Z,8.73
2019-02-28T06:34:50.181Z,9.42
2019-02-28T06:37:21.342Z,9.17
2019-02-28T06:39:53.831Z,9.58
2019-02-28T06:42:27.553Z,9.95
2019-02-28T06:45:02.383Z,9.80
2019-02-28T06:47:35.471Z,10.44
2019-02-28T06:50:12.985Z,11.07
2019-02-28T06:52:42.882Z,11.43
2019-02-28T06:55:18.631Z,11.88
2019-02-28T06:57:49.983Z,12.23
2019-02-28T07:00:21.748Z,12.53
2019-02-28T07:02:54.256Z,12.74
2019-02-28T07:05:26.221Z,11.56
2019-02-28T07:07:56.877Z,11.60
2019-02-28T07:10:28.297Z,12.44
2019-02-28T07:13:06.219Z,12.75
2019-02-28T07:15:36.726Z,13.45
2019-02-28T07:18:07.557Z,14.16
2019-02-28T07:20:38.151Z,14.37
2019-02-28T07:23:08.825Z,14.22
2019-02-28T07:25:39.371Z,14.26
2019-02-28T07:28:09.953Z,14.07
2019-02-28T07:30:41.481Z,14.20
2019-02-28T07:33:12.182Z,14.41
2019-02-28T07:35:42.664Z,13.29
2019-02-28T07:38:13.206Z,14.30
2019-02-28T07:40:45.625Z,15.01
2019-02-28T07:43:15.779Z,15.21
2019-02-28T07:45:46.404Z,15.54
2019-02-28T07:48:16.866Z,16.14
2019-02-28T07:50:47.724Z,16.24
2019-02-28T07:53:18.381Z,16.26
2019-02-28T07:55:49.065Z,16.75
2019-02-28T07:58:19.641Z,17.12
2019-02-28T08:00:52.690Z,16.94
2019-02-28T08:03:22.400Z,17.34
2019-02-28T08:05:52.917Z,17.70
2019-02-28T08:08:26.326Z,17.95
2019-02-28T08:10:55.936Z,18.12
2019-02-28T08:13:26.415Z,17.95
2019-02-28T08:16:00.197Z,17.73
2019-02-28T08:18:31.566Z,17.99
2019-02-28T08:21:01.638Z,17.81
2019-02-28T08:23:32.240Z,16.98
2019-02-28T08:26:02.844Z,17.33
2019-02-28T08:28:36.782Z,16.89
2019-02-28T08:31:05.971Z,17.15
2019-02-28T08:33:36.612Z,18.55
2019-02-28T08:36:11.548Z,18.41
2019-02-28T08:38:39.490Z,17.45
2019-02-28T08:41:10.079Z,17.26
2019-02-28T08:43:40.787Z,18.42
2019-02-28T08:46:13.743Z,18.13
2019-02-28T08:48:43.490Z,17.34
2019-02-28T08:51:13.899Z,17.72
2019-02-28T08:53:50.943Z,18.21
2019-02-28T08:56:16.904Z,18.00
2019-02-28T08:58:47.472Z,18.00
2019-02-28T09:01:18.174Z,17.39
2019-02-28T09:03:50.236Z,17.96
2019-02-28T09:06:20.952Z,18.10
2019-02-28T09:08:51.511Z,16.34
2019-02-28T09:11:22.237Z,17.42
2019-02-28T09:13:52.706Z,17.63
2019-02-28T09:16:23.089Z,18.55
2019-02-28T09:18:53.598Z,19.13
2019-02-28T09:21:24.174Z,19.43
2019-02-28T09:23:54.698Z,18.54
2019-02-28T09:26:28.282Z,16.78
2019-02-28T09:28:57.700Z,18.18
2019-02-28T09:31:28.512Z,18.30
2019-02-28T09:33:59.826Z,18.08
2019-02-28T09:36:30.398Z,18.81
2019-02-28T09:39:01.227Z,18.44
2019-02-28T09:41:31.723Z,19.11
2019-02-28T09:44:02.369Z,18.05
2019-02-28T09:46:33.093Z,18.55
2019-02-28T09:49:05.585Z,19.31
2019-02-28T09:51:36.111Z,18.99
2019-02-28T09:54:07.116Z,18.87
2019-02-28T09:56:37.740Z,19.68
2019-02-28T09:59:08.456Z,19.63
2019-02-28T10:01:39.230Z,19.24
2019-02-28T10:04:10.463Z,20.44
2019-02-28T10:06:41.215Z,20.14
2019-02-28T10:09:11.788Z,19.96
2019-02-28T10:11:42.276Z,20.13
2019-02-28T10:14:12.981Z,19.46
2019-02-28T10:16:43.688Z,19.05
2019-02-28T10:19:14.299Z,19.18
2019-02-28T10:21:51.669Z,19.31
2019-02-28T10:24:17.209Z,18.96
2019-02-28T10:26:51.214Z,18.50
2019-02-28T10:29:20.361Z,18.00
2019-02-28T10:31:50.889Z,18.13
2019-02-28T10:34:23.424Z,18.74
2019-02-28T10:36:53.700Z,19.72
2019-02-28T10:39:24.251Z,20.02
2019-02-28T10:41:54.782Z,20.47
2019-02-28T10:44:30.297Z,20.02
2019-02-28T10:46:57.525Z,19.34
2019-02-28T10:49:28.120Z,20.30
2019-02-28T10:51:58.647Z,19.99
2019-02-28T10:54:29.209Z,20.37
2019-02-28T10:56:59.702Z,20.55
2019-02-28T10:59:30.181Z,19.14
2019-02-28T11:02:00.652Z,20.27
2019-02-28T11:04:31.176Z,18.62
2019-02-28T11:07:03.130Z,19.05
2019-02-28T11:09:33.911Z,20.01
2019-02-28T11:12:04.569Z,19.42
2019-02-28T11:14:35.527Z,19.01
2019-02-28T11:17:12.874Z,18.60
2019-02-28T11:19:39.915Z,19.67
2019-02-28T11:22:10.655Z,19.10
2019-02-28T11:24:41.197Z,20.25
2019-02-28T11:27:11.743Z,20.03
2019-02-28T11:29:43.082Z,20.21
2019-02-28T11:32:13.522Z,21.06
2019-02-28T11:34:45.807Z,20.68
2019-02-28T11:37:16.407Z,20.37
2019-02-28T11:39:46.836Z,19.39
2019-02-28T11:42:17.379Z,19.48
2019-02-28T11:44:47.952Z,19.17
2019-02-28T11:47:18.667Z,18.89
2019-02-28T11:49:49.255Z,19.42
2019-02-28T11:52:20.143Z,19.14
2019-02-28T11:54:50.707Z,18.90
2019-02-28T11:57:30.472Z,18.16
2019-02-28T12:00:01.601Z,19.35
2019-02-28T12:02:32.341Z,18.90
2019-02-28T12:05:03.128Z,17.58
2019-02-28T12:07:34.977Z,17.38
2019-02-28T12:10:07.002Z,17.56
2019-02-28T12:12:37.419Z,17.42
2019-02-28T12:15:09.815Z,17.55
2019-02-28T12:17:40.234Z,17.70
2019-02-28T12:20:13.071Z,17.47
2019-02-28T12:22:49.137Z,17.47
2019-02-28T12:25:18.788Z,17.02
2019-02-28T12:27:49.401Z,16.57
2019-02-28T12:30:25.183Z,16.84
2019-02-28T12:32:55.231Z,16.73
2019-02-28T12:35:25.785Z,16.10
2019-02-28T12:37:56.415Z,16.73
2019-02-28T12:40:29.860Z,16.39
2019-02-28T12:43:00.316Z,16.20
2019-02-28T12:45:36.966Z,16.22
2019-02-28T12:48:27.281Z,16.32
2019-02-28T12:50:57.972Z,15.70
2019-02-28T12:53:28.707Z,15.98
2019-02-28T12:55:59.456Z,16.13
2019-02-28T12:58:38.896Z,16.53
2019-02-28T13:01:02.840Z,16.37
2019-02-28T13:03:33.481Z,16.63
2019-02-28T13:06:04.035Z,16.39
2019-02-28T13:08:34.598Z,16.35
2019-02-28T13:11:05.053Z,15.94
2019-02-28T13:13:35.615Z,16.09
2019-02-28T13:16:06.295Z,16.08
2019-02-28T13:18:39.593Z,15.55
2019-02-28T13:21:10.687Z,15.82
2019-02-28T13:23:41.151Z,15.36
2019-02-28T13:26:11.638Z,15.43
2019-02-28T13:28:41.962Z,15.19
2019-02-28T13:31:12.625Z,15.40
2019-02-28T13:33:43.281Z,15.53
2019-02-28T13:36:13.804Z,15.10
2019-02-28T13:38:44.762Z,15.27
2019-02-28T13:41:18.167Z,15.22
2019-02-28T13:43:47.690Z,15.20
2019-02-28T13:46:18.323Z,15.06
2019-02-28T13:48:50.527Z,15.05
2019-02-28T13:51:21.277Z,14.96
2019-02-28T13:53:52.045Z,15.06
2019-02-28T13:56:22.541Z,14.90
2019-02-28T13:58:53.773Z,14.89
2019-02-28T14:01:25.227Z,14.95
2019-02-28T14:03:55.754Z,14.74
2019-02-28T14:06:31.351Z,14.76
2019-02-28T14:09:01.933Z,14.77
2019-02-28T14:11:32.549Z,14.83
2019-02-28T14:14:06.267Z,14.80
2019-02-28T14:16:52.128Z,14.65
2019-02-28T14:19:22.677Z,14.57
2019-02-28T14:21:53.396Z,14.40
2019-02-28T14:24:24.100Z,14.58
2019-02-28T14:26:54.773Z,14.46
2019-02-28T14:29:25.605Z,14.33
2019-02-28T14:31:57.243Z,14.15
2019-02-28T14:34:28.115Z,14.29
2019-02-28T14:36:58.871Z,14.17
2019-02-28T14:39:29.704Z,14.17
2019-02-28T14:42:03.021Z,13.94
2019-02-28T14:44:41.290Z,13.88
2019-02-28T14:47:12.248Z,13.99
2019-02-28T14:49:44.572Z,13.81
2019-02-28T14:52:15.331Z,13.84
2019-02-28T14:54:46.031Z,13.72
2019-02-28T14:57:17.710Z,13.58
2019-02-28T14:59:48.978Z,13.50
2019-02-28T15:02:19.554Z,13.32
2019-02-28T15:04:50.114Z,13.23
2019-02-28T15:07:20.731Z,13.19
2019-02-28T15:09:54.545Z,13.13
2019-02-28T15:12:27.367Z,13.06
2019-02-28T15:15:03.792Z,12.90
2019-02-28T15:17:34.351Z,12.89
2019-02-28T15:20:05.181Z,12.80
2019-02-28T15:22:37.297Z,12.79
2019-02-28T15:25:10.980Z,12.74
2019-02-28T15:27:43.301Z,12.57
2019-02-28T15:30:22.000Z,12.53
2019-02-28T15:32:54.301Z,12.42
2019-02-28T15:35:27.616Z,12.34
2019-02-28T15:37:58.807Z,12.36
2019-02-28T15:40:33.768Z,12.17
2019-02-28T15:43:04.377Z,12.12
2019-02-28T15:45:36.327Z,12.11
2019-02-28T15:48:07.577Z,12.02
2019-02-28T15:50:38.517Z,11.99
2019-02-28T15:53:11.378Z,11.83
2019-02-28T15:55:41.766Z,11.79
2019-02-28T15:58:12.366Z,11.69
2019-02-28T16:00:43.009Z,11.71
2019-02-28T16:03:16.802Z,11.56
2019-02-28T16:05:50.542Z,11.54
2019-02-28T16:08:23.412Z,11.40
2019-02-28T16:10:59.488Z,11.30
2019-02-28T16:13:30.177Z,11.26
2019-02-28T16:16:00.947Z,11.27
2019-02-28T16:18:31.597Z,11.26
2019-02-28T16:21:03.580Z,11.21
2019-02-28T16:23:35.118Z,11.19
2019-02-28T16:26:06.449Z,11.11
2019-02-28T16:28:44.302Z,11.01
2019-02-28T16:31:14.877Z,10.99
2019-02-28T16:33:45.880Z,10.83
2019-02-28T16:36:16.605Z,10.82
2019-02-28T16:38:47.537Z,10.75
2019-02-28T16:41:25.769Z,10.60
2019-02-28T16:43:59.726Z,10.49
2019-02-28T16:46:30.726Z,10.43
2019-02-28T16:49:01.242Z,10.31
2019-02-28T16:51:31.945Z,10.34
2019-02-28T16:54:04.138Z,10.37
2019-02-28T16:56:37.856Z,10.33
2019-02-28T16:59:09.378Z,10.34
2019-02-28T17:01:41.196Z,10.35
2019-02-28T17:04:13.519Z,10.19
2019-02-28T17:06:45.824Z,10.12
2019-02-28T17:09:36.515Z,10.00
2019-02-28T17:12:16.003Z,9.91
2019-02-28T17:14:49.701Z,9.83
2019-02-28T17:17:30.330Z,9.83
2019-02-28T17:20:03.098Z,9.83
2019-02-28T17:22:34.598Z,9.72
2019-02-28T17:25:09.917Z,9.65
2019-02-28T17:31:11.525Z,9.62
2019-02-28T17:33:46.902Z,9.66
2019-02-28T17:36:20.880Z,9.67
2019-02-28T17:38:54.866Z,9.56
2019-02-28T17:41:30.245Z,9.51
2019-02-28T17:44:37.470Z,9.47
2019-02-28T17:47:44.702Z,9.45
2019-02-28T17:50:56.218Z,9.44
2019-02-28T17:54:00.054Z,9.35
2019-02-28T17:56:59.556Z,9.24
2019-02-28T18:00:22.714Z,9.20
2019-02-28T18:03:48.451Z,9.02
2019-02-28T18:07:04.996Z,8.98
2019-02-28T18:09:59.261Z,8.85
2019-02-28T18:13:22.587Z,8.83
2019-02-28T18:16:31.743Z,8.85
2019-02-28T18:19:54.268Z,8.72
2019-02-28T18:22:53.258Z,8.60
2019-02-28T18:26:14.919Z,8.60
2019-02-28T18:29:39.351Z,8.51
2019-02-28T18:32:15.384Z,8.41
2019-02-28T18:34:52.774Z,8.27
2019-02-28T18:37:30.824Z,8.28
2019-02-28T18:40:02.186Z,8.33
2019-02-28T18:42:33.980Z,8.31
2019-02-28T18:45:05.947Z,8.34
2019-02-28T18:47:42.555Z,8.26
2019-02-28T18:50:17.772Z,8.23
2019-02-28T18:52:50.706Z,8.20
2019-02-28T18:55:34.698Z,8.20
2019-02-28T18:58:04.055Z,8.11
2019-02-28T19:00:36.159Z,8.03
2019-02-28T19:03:06.810Z,7.89
2019-02-28T19:05:39.736Z,7.86
2019-02-28T19:08:11.369Z,7.70
2019-02-28T19:10:54.945Z,7.70
2019-02-28T19:13:35.217Z,7.67
2019-02-28T19:16:11.325Z,7.56
2019-02-28T19:18:45.603Z,7.43
2019-02-28T19:21:24.424Z,7.43
2019-02-28T19:23:58.839Z,7.44
2019-02-28T19:26:29.862Z,7.38
2019-02-28T19:29:02.604Z,7.34
2019-02-28T19:31:39.901Z,7.35
2019-02-28T19:34:10.568Z,7.22
2019-02-28T19:36:44.727Z,7.16
2019-02-28T19:39:20.018Z,7.20
2019-02-28T19:41:50.662Z,7.32
2019-02-28T19:44:28.725Z,7.27
2019-02-28T19:47:06.008Z,7.40
2019-02-28T19:49:38.951Z,7.43
2019-02-28T19:52:11.321Z,7.49
2019-02-28T19:54:47.418Z,7.49
2019-02-28T19:57:28.702Z,7.51
2019-02-28T20:00:02.950Z,7.50
2019-02-28T20:02:36.158Z,7.55
2019-02-28T20:05:15.922Z,7.55
2019-02-28T20:07:52.947Z,7.45
2019-02-28T20:10:26.407Z,7.57
2019-02-28T20:13:00.694Z,7.67
2019-02-28T20:15:37.881Z,7.76
2019-02-28T20:18:08.519Z,7.81
2019-02-28T20:20:39.357Z,7.67
2019-02-28T20:23:13.352Z,7.45
2019-02-28T20:25:44.946Z,7.07
2019-02-28T20:28:16.766Z,6.89
2019-02-28T20:30:50.982Z,6.73
2019-02-28T20:33:23.161Z,6.65
2019-02-28T20:35:56.780Z,6.52
2019-02-28T20:38:29.394Z,6.44
2019-02-28T20:41:00.057Z,6.32
2019-02-28T20:43:37.054Z,6.22
2019-02-28T20:46:08.784Z,6.19
2019-02-28T20:48:40.654Z,6.06
2019-02-28T20:51:11.951Z,5.98
2019-02-28T20:53:42.533Z,5.97
2019-02-28T20:56:13.871Z,5.89
2019-02-28T20:58:45.742Z,5.80
2019-02-28T21:01:16.331Z,5.67
2019-02-28T21:03:46.964Z,5.66
2019-02-28T21:06:17.620Z,5.71
2019-02-28T21:08:53.185Z,5.69
2019-02-28T21:11:24.254Z,5.67
2019-02-28T21:13:58.052Z,5.65
2019-02-28T21:16:29.980Z,5.60
2019-02-28T21:19:00.561Z,5.59
2019-02-28T21:21:34.902Z,5.57
2019-02-28T21:24:09.160Z,5.57
2019-02-28T21:26:39.741Z,5.55
2019-02-28T21:29:10.280Z,5.53
2019-02-28T21:31:40.779Z,5.49
2019-02-28T21:34:12.902Z,5.49
2019-02-28T21:36:43.751Z,5.51
2019-02-28T21:39:14.470Z,5.43
2019-02-28T21:41:45.158Z,5.26
2019-02-28T21:44:15.781Z,5.29
2019-02-28T21:46:46.521Z,5.23
2019-02-28T21:49:16.958Z,5.21
2019-02-28T21:51:48.017Z,5.21
2019-02-28T21:54:18.584Z,5.21
2019-02-28T21:56:51.997Z,5.17
2019-02-28T21:59:23.282Z,5.24
2019-02-28T22:01:53.715Z,5.21
2019-02-28T22:04:24.789Z,5.31
2019-02-28T22:06:55.273Z,5.32
2019-02-28T22:09:25.707Z,5.32
2019-02-28T22:11:56.216Z,5.38
2019-02-28T22:14:26.761Z,5.34
2019-02-28T22:16:57.401Z,5.31
2019-02-28T22:19:28.662Z,5.41
2019-02-28T22:21:59.101Z,5.34
2019-02-28T22:24:29.481Z,5.36
2019-02-28T22:26:59.957Z,5.26
2019-02-28T22:29:30.606Z,5.22
2019-02-28T22:32:24.510Z,5.29
2019-02-28T22:35:06.046Z,5.21
2019-02-28T22:37:36.615Z,5.28
2019-02-28T22:40:08.111Z,5.23
2019-02-28T22:42:38.612Z,5.23
2019-02-28T22:45:09.415Z,5.15
2019-02-28T22:47:39.841Z,5.20
2019-02-28T22:50:10.582Z,5.25
2019-02-28T22:52:41.203Z,5.27
2019-02-28T22:55:11.691Z,5.25
2019-02-28T22:57:42.252Z,5.21
2019-02-28T23:00:33.626Z,5.16
2019-02-28T23:03:04.258Z,5.18
2019-02-28T23:05:34.876Z,5.21
2019-02-28T23:08:05.436Z,5.21
2019-02-28T23:10:36.166Z,5.15
2019-02-28T23:13:06.836Z,5.14
2019-02-28T23:15:37.277Z,5.22
2019-02-28T23:18:07.864Z,5.25
2019-02-28T23:20:38.496Z,5.19
2019-02-28T23:23:09.171Z,5.23
2019-02-28T23:25:39.695Z,5.16
2019-02-28T23:28:24.969Z,5.26
2019-02-28T23:31:26.697Z,5.25
2019-02-28T23:34:01.502Z,5.17
2019-02-28T23:36:32.045Z,5.24
2019-02-28T23:39:04.667Z,5.25
2019-02-28T23:41:35.085Z,5.18
2019-02-28T23:44:06.363Z,5.21
2019-02-28T23:46:36.881Z,5.23
2019-02-28T23:49:07.481Z,5.25
2019-02-28T23:51:37.887Z,5.24
2019-02-28T23:54:08.430Z,5.16
2019-02-28T23:56:38.904Z,5.11
2019-02-28T23:59:09.397Z,5.10
